Time;durP1;ratioP1;P1;durP2;ratioP2;P2;SDS_P1;SDS_P2;PMS_P1;PMS_P2;Temp;Humidity;BMP_temperature;BMP_pressure;BME280_temperature;BME280_humidity;BME280_pressure;Samples;Min_cycle;Max_cycle;Signal;HPM_P1;HPM_P2
2023/06/05 00:02:01;;;;;;;2.92;2.20;;;17.90;99.90;;;;;;5039919;28;20084;-51
2023/06/05 00:04:27;;;;;;;2.95;2.20;;;17.90;99.90;;;;;;5075178;28;20103;-50
2023/06/05 00:06:54;;;;;;;3.28;2.20;;;17.90;99.90;;;;;;5074808;28;20040;-50
2023/06/05 00:09:20;;;;;;;4.25;2.20;;;17.80;99.90;;;;;;5074942;28;20487;-51
2023/06/05 00:11:46;;;;;;;2.70;1.88;;;;;;;;;;5074848;28;20028;-52
2023/06/05 00:14:12;;;;;;;3.30;2.10;;;;;;;;;;5074880;28;20028;-49
2023/06/05 00:16:38;;;;;;;4.07;2.42;;;17.20;99.90;;;;;;5075092;28;20032;-49
2023/06/05 00:19:04;;;;;;;3.08;1.98;;;17.40;99.90;;;;;;5074792;28;20059;-52
2023/06/05 00:21:30;;;;;;;3.45;2.47;;;17.40;99.90;;;;;;5056093;28;20181;-47
2023/06/05 00:23:55;;;;;;;2.40;1.88;;;17.50;99.90;;;;;;5072947;28;20043;-51
2023/06/05 00:26:21;;;;;;;2.80;2.20;;;17.60;99.90;;;;;;5074533;28;20449;-49
2023/06/05 00:28:47;;;;;;;3.20;2.28;;;17.60;99.90;;;;;;5074190;28;20039;-50
2023/06/05 00:31:13;;;;;;;2.85;2.17;;;17.50;99.90;;;;;;5074713;28;20392;-50
2023/06/05 00:33:39;;;;;;;3.20;2.00;;;17.60;99.90;;;;;;5055802;28;20044;-50
2023/06/05 00:36:05;;;;;;;2.80;2.40;;;17.50;99.90;;;;;;5074582;28;20093;-51
2023/06/05 00:38:32;;;;;;;3.92;2.50;;;17.50;99.90;;;;;;5074485;28;20059;-48
2023/06/05 00:40:57;;;;;;;4.45;2.15;;;17.50;99.90;;;;;;5074196;28;20036;-51
2023/06/05 00:43:23;;;;;;;4.18;1.98;;;17.40;99.90;;;;;;5074280;28;20448;-50
2023/06/05 00:45:53;;;;;;;2.15;1.92;;;17.40;99.90;;;;;;5055604;28;20043;-49
2023/06/05 00:48:18;;;;;;;2.85;2.08;;;17.50;99.90;;;;;;5074468;28;20032;-50
2023/06/05 00:50:45;;;;;;;3.40;2.40;;;17.30;99.90;;;;;;5074182;28;20024;-52
2023/06/05 00:53:12;;;;;;;2.78;2.05;;;17.30;99.90;;;;;;5055696;28;20127;-50
2023/06/05 00:55:37;;;;;;;2.88;2.10;;;17.10;99.90;;;;;;5073809;28;20028;-49
2023/06/05 00:58:04;;;;;;;3.65;2.15;;;17.10;99.90;;;;;;5074180;28;20085;-52
2023/06/05 01:00:30;;;;;;;3.20;2.20;;;17.10;99.90;;;;;;5074142;28;20024;-48
2023/06/05 01:02:58;;;;;;;3.45;2.20;;;17.30;99.90;;;;;;5073792;28;20499;-50
2023/06/05 01:05:24;;;;;;;3.83;2.60;;;17.20;99.90;;;;;;5073755;28;20252;-51
2023/06/05 01:07:50;;;;;;;2.85;2.38;;;17.20;99.90;;;;;;5074017;28;20418;-48
2023/06/05 01:10:16;;;;;;;3.30;2.17;;;17.30;99.90;;;;;;5073672;28;20103;-51
2023/06/05 01:13:28;;;;;;;4.57;2.28;;;17.20;99.90;;;;;;5074156;28;20104;-51
2023/06/05 01:15:56;;;;;;;4.72;2.28;;;17.30;99.90;;;;;;5011730;28;20046;-50
2023/06/05 01:18:24;;;;;;;2.67;2.08;;;17.20;99.90;;;;;;4978435;28;20476;-52
2023/06/05 01:20:50;;;;;;;5.05;2.40;;;17.20;99.90;;;;;;5011070;28;20533;-50
2023/06/05 01:23:16;;;;;;;2.10;1.70;;;17.20;99.90;;;;;;5011822;28;20025;-51
2023/06/05 01:25:42;;;;;;;2.38;1.85;;;17.20;99.90;;;;;;5010111;28;20061;-51
2023/06/05 01:28:18;;;;;;;3.65;2.58;;;17.30;99.90;;;;;;5011627;28;20440;-51
2023/06/05 01:30:53;;;;;;;3.30;2.15;;;17.20;99.90;;;;;;5011694;28;20170;-53
2023/06/05 01:33:34;;;;;;;2.75;2.05;;;17.30;99.90;;;;;;5011517;28;20049;-52
2023/06/05 01:36:04;;;;;;;2.83;1.92;;;17.00;99.90;;;;;;5011436;28;20037;-51
2023/06/05 01:38:33;;;;;;;3.85;2.53;;;17.00;99.90;;;;;;5011373;28;20038;-53
2023/06/05 01:41:01;;;;;;;4.22;2.70;;;17.00;99.90;;;;;;4995061;28;20038;-52
2023/06/05 01:43:26;;;;;;;3.85;2.67;;;17.10;99.90;;;;;;4978835;28;20645;-51
2023/06/05 01:45:56;;;;;;;3.00;2.25;;;17.10;99.90;;;;;;4978559;28;20128;-47
2023/06/05 01:48:23;;;;;;;3.30;2.42;;;17.00;99.90;;;;;;5011485;28;20481;-51
2023/06/05 01:50:53;;;;;;;2.38;2.00;;;17.00;99.90;;;;;;5011429;28;20416;-49
2023/06/05 01:53:19;;;;;;;3.63;2.17;;;;;;;;;;5068385;28;20040;-52
2023/06/05 01:55:46;;;;;;;3.35;2.08;;;17.00;99.90;;;;;;5072842;28;20050;-50
2023/06/05 01:58:12;;;;;;;4.75;2.65;;;16.90;99.90;;;;;;5073389;28;20032;-51
2023/06/05 02:00:38;;;;;;;3.67;2.58;;;16.80;99.90;;;;;;5072957;28;20494;-51
2023/06/05 02:03:04;;;;;;;2.88;2.10;;;16.60;99.90;;;;;;5073066;28;20028;-52
2023/06/05 02:05:30;;;;;;;3.35;2.40;;;;;;;;;;5050251;28;20052;-50
2023/06/05 02:07:58;;;;;;;3.25;1.85;;;16.40;99.90;;;;;;5050567;28;20033;-49
2023/06/05 02:10:24;;;;;;;2.97;2.10;;;16.60;99.90;;;;;;5050154;28;20481;-51
2023/06/05 02:12:51;;;;;;;2.78;2.00;;;16.70;99.90;;;;;;4991362;28;20530;-50
2023/06/05 02:15:17;;;;;;;3.03;2.10;;;16.70;99.90;;;;;;4991036;28;20042;-50
2023/06/05 02:17:50;;;;;;;3.08;2.38;;;16.70;99.90;;;;;;4927137;28;20042;-49
2023/06/05 02:20:16;;;;;;;5.88;2.10;;;16.70;99.90;;;;;;4991226;28;20104;-52
2023/06/05 02:22:44;;;;;;;3.72;2.30;;;16.80;99.90;;;;;;4959309;28;20030;-50
2023/06/05 02:25:13;;;;;;;3.72;2.22;;;16.80;99.90;;;;;;4991192;28;20410;-50
2023/06/05 02:27:39;;;;;;;4.05;2.05;;;16.90;99.90;;;;;;4991325;28;20049;-49
2023/06/05 02:30:05;;;;;;;3.33;2.10;;;16.80;99.90;;;;;;4962727;28;20042;-52
2023/06/05 02:32:31;;;;;;;3.47;1.92;;;17.00;99.90;;;;;;4963257;28;20152;-49
2023/06/05 02:34:57;;;;;;;3.78;2.00;;;16.90;99.90;;;;;;4995245;28;20509;-52
2023/06/05 02:37:24;;;;;;;3.78;1.95;;;16.80;99.90;;;;;;5029630;28;20053;-50
2023/06/05 02:39:50;;;;;;;3.70;2.20;;;16.80;99.90;;;;;;5034381;28;20025;-50
2023/06/05 02:42:18;;;;;;;3.90;2.22;;;16.70;99.90;;;;;;5034470;28;20039;-52
2023/06/05 02:44:44;;;;;;;5.03;2.30;;;16.70;99.90;;;;;;5071739;28;20041;-51
2023/06/05 02:47:10;;;;;;;4.72;2.30;;;16.60;99.90;;;;;;5076683;28;20031;-49
2023/06/05 02:49:37;;;;;;;2.28;1.88;;;16.70;99.90;;;;;;5076420;28;20476;-52
2023/06/05 02:52:03;;;;;;;2.83;1.92;;;16.80;99.90;;;;;;5057696;28;20044;-53
2023/06/05 02:54:29;;;;;;;3.28;2.22;;;16.70;99.90;;;;;;5074652;28;20028;-49
2023/06/05 02:56:56;;;;;;;3.03;1.98;;;16.60;99.90;;;;;;5075176;28;20484;-49
2023/06/05 02:59:24;;;;;;;3.83;2.47;;;16.60;99.90;;;;;;5057083;28;20042;-50
2023/06/05 03:01:51;;;;;;;2.47;1.92;;;16.80;99.90;;;;;;5075813;28;20051;-52
2023/06/05 03:04:21;;;;;;;3.45;2.17;;;16.80;99.90;;;;;;5075932;28;20040;-51
2023/06/05 03:06:50;;;;;;;4.13;2.63;;;16.80;99.90;;;;;;5057856;28;20434;-49
2023/06/05 03:09:16;;;;;;;2.63;2.25;;;16.80;99.90;;;;;;5073643;28;20387;-50
2023/06/05 03:11:43;;;;;;;2.88;2.33;;;16.90;99.90;;;;;;5075878;28;20036;-51
2023/06/05 03:14:09;;;;;;;3.53;2.30;;;16.90;99.90;;;;;;5076091;28;20029;-49
2023/06/05 03:16:41;;;;;;;3.28;2.15;;;16.80;99.90;;;;;;5075838;28;20029;-49
2023/06/05 03:19:08;;;;;;;3.47;2.00;;;17.00;99.90;;;;;;5076187;28;20055;-51
2023/06/05 03:21:35;;;;;;;3.13;2.20;;;17.00;99.90;;;;;;5075681;28;20230;-50
2023/06/05 03:24:01;;;;;;;5.03;2.28;;;16.90;99.90;;;;;;5076032;28;20031;-51
2023/06/05 03:26:28;;;;;;;3.88;2.00;;;17.00;99.90;;;;;;5075816;28;20036;-51
2023/06/05 03:28:54;;;;;;;2.92;2.15;;;17.00;99.90;;;;;;5075995;28;20033;-50
2023/06/05 03:31:20;;;;;;;4.32;2.10;;;17.10;99.90;;;;;;5075591;28;20031;-50
2023/06/05 03:33:46;;;;;;;3.17;2.40;;;17.00;99.90;;;;;;5075600;28;20380;-49
2023/06/05 03:36:11;;;;;;;3.45;2.40;;;17.20;99.90;;;;;;5075339;28;20045;-48
2023/06/05 03:38:37;;;;;;;2.08;1.80;;;17.10;99.90;;;;;;5075462;28;20078;-52
2023/06/05 03:41:03;;;;;;;4.80;2.22;;;17.00;99.90;;;;;;5056048;28;20078;-48
2023/06/05 03:43:30;;;;;;;3.55;2.25;;;17.00;99.90;;;;;;5070633;28;20035;-50
2023/06/05 03:45:56;;;;;;;4.10;2.55;;;17.10;99.90;;;;;;5072139;28;20032;-50
2023/06/05 03:48:22;;;;;;;3.67;2.22;;;17.10;99.90;;;;;;5075899;28;20075;-53
2023/06/05 03:50:51;;;;;;;4.95;2.33;;;17.20;99.90;;;;;;5056692;28;20032;-51
2023/06/05 03:53:18;;;;;;;3.83;2.30;;;17.30;99.90;;;;;;5056940;28;20076;-51
2023/06/05 03:55:49;;;;;;;3.30;2.35;;;17.40;99.90;;;;;;5056513;28;20068;-50
2023/06/05 03:58:15;;;;;;;4.78;2.10;;;17.20;99.90;;;;;;5075201;28;20039;-51
2023/06/05 04:00:42;;;;;;;2.88;2.22;;;17.30;99.90;;;;;;5074838;28;20039;-50
2023/06/05 04:03:10;;;;;;;3.78;2.45;;;17.30;99.90;;;;;;5075216;28;20032;-51
2023/06/05 04:05:36;;;;;;;6.32;2.20;;;17.40;99.90;;;;;;5074820;28;20049;-51
2023/06/05 04:08:03;;;;;;;3.20;2.20;;;;;;;;;;5074650;28;20090;-50
2023/06/05 04:10:29;;;;;;;2.60;2.38;;;;;;;;;;5073494;28;20044;-52
2023/06/05 04:12:55;;;;;;;2.50;1.80;;;;;;;;;;5075301;28;20084;-49
2023/06/05 04:15:23;;;;;;;3.42;2.38;;;17.50;99.90;;;;;;5074107;28;20044;-50
2023/06/05 04:17:49;;;;;;;3.38;2.25;;;17.60;99.90;;;;;;5055897;28;20044;-49
2023/06/05 04:20:15;;;;;;;2.50;2.00;;;17.60;99.90;;;;;;5072525;28;20036;-52
2023/06/05 04:22:42;;;;;;;2.30;2.05;;;17.80;99.90;;;;;;5063979;28;20025;-51
2023/06/05 04:25:10;;;;;;;2.72;1.90;;;17.70;99.90;;;;;;5062560;28;20044;-51
2023/06/05 04:27:40;;;;;;;5.32;2.42;;;17.70;99.90;;;;;;5048974;28;20391;-50
2023/06/05 04:30:26;;;;;;;4.15;2.22;;;17.80;99.90;;;;;;5064699;28;20040;-51
2023/06/05 04:32:54;;;;;;;3.70;2.08;;;17.80;99.90;;;;;;5031544;28;20059;-50
2023/06/05 04:35:21;;;;;;;4.07;2.55;;;17.80;99.90;;;;;;4994075;28;20112;-53
2023/06/05 04:37:47;;;;;;;3.03;2.42;;;18.00;99.90;;;;;;5027657;28;20437;-50
2023/06/05 04:40:15;;;;;;;3.45;2.50;;;17.70;99.90;;;;;;5029329;28;20049;-52
2023/06/05 04:42:40;;;;;;;4.82;2.30;;;17.70;99.90;;;;;;5031562;28;20044;-53
2023/06/05 04:45:11;;;;;;;3.20;2.17;;;17.60;99.90;;;;;;5032175;28;20505;-49
2023/06/05 04:47:37;;;;;;;3.22;2.35;;;17.70;99.90;;;;;;5032329;28;20091;-52
2023/06/05 04:50:05;;;;;;;2.97;2.42;;;17.70;99.90;;;;;;5032385;28;20068;-50
2023/06/05 04:52:32;;;;;;;4.20;2.25;;;17.90;99.90;;;;;;4999155;28;20481;-50
2023/06/05 04:55:01;;;;;;;3.58;2.30;;;17.80;99.90;;;;;;5031608;28;20026;-52
2023/06/05 04:57:27;;;;;;;4.70;2.42;;;18.10;99.90;;;;;;5031423;28;20539;-49
2023/06/05 04:59:54;;;;;;;4.78;2.70;;;17.80;99.90;;;;;;5030939;28;20025;-53
2023/06/05 05:02:20;;;;;;;3.30;2.40;;;17.90;99.90;;;;;;5015396;28;20052;-50
2023/06/05 05:04:47;;;;;;;4.35;3.15;;;18.10;99.90;;;;;;5031576;28;20076;-51
2023/06/05 05:07:15;;;;;;;4.13;2.90;;;18.20;99.90;;;;;;5031824;28;20087;-51
2023/06/05 05:09:42;;;;;;;4.25;3.15;;;18.30;99.90;;;;;;5002589;28;20447;-51
2023/06/05 05:12:09;;;;;;;4.85;2.97;;;18.40;99.90;;;;;;5053893;28;20062;-50
2023/06/05 05:14:35;;;;;;;5.32;3.10;;;18.40;99.90;;;;;;5057547;28;20038;-50
2023/06/05 05:17:02;;;;;;;4.20;2.63;;;18.40;99.90;;;;;;5067617;28;20063;-51
2023/06/05 05:19:28;;;;;;;2.78;2.28;;;18.30;99.90;;;;;;5064129;28;20032;-52
2023/06/05 05:21:54;;;;;;;3.63;2.78;;;18.10;99.90;;;;;;5062783;28;20024;-51
2023/06/05 05:24:20;;;;;;;4.40;2.72;;;18.10;99.90;;;;;;5062650;28;20032;-50
2023/06/05 05:26:46;;;;;;;3.72;2.42;;;18.10;99.90;;;;;;5062080;28;20035;-52
2023/06/05 05:29:12;;;;;;;5.43;2.88;;;18.20;99.90;;;;;;5062440;28;20100;-50
2023/06/05 05:31:38;;;;;;;4.63;2.75;;;18.20;99.90;;;;;;5044152;28;20063;-52
2023/06/05 05:34:04;;;;;;;5.45;3.05;;;18.60;99.90;;;;;;5056045;28;20068;-50
2023/06/05 05:36:29;;;;;;;4.75;3.20;;;18.60;99.90;;;;;;5053267;28;20448;-48
2023/06/05 05:38:55;;;;;;;3.95;2.58;;;18.50;99.90;;;;;;5055986;28;20029;-49
2023/06/05 05:41:21;;;;;;;5.40;3.33;;;18.60;99.90;;;;;;5066291;28;20039;-48
2023/06/05 05:43:47;;;;;;;5.88;2.70;;;18.50;99.90;;;;;;5054750;28;20120;-48
2023/06/05 05:46:13;;;;;;;3.83;2.67;;;18.60;99.90;;;;;;5073465;28;20889;-48
2023/06/05 05:48:39;;;;;;;5.18;2.80;;;18.80;99.90;;;;;;5073192;28;20480;-49
2023/06/05 05:51:06;;;;;;;4.07;2.80;;;19.00;99.90;;;;;;5054650;28;20101;-49
2023/06/05 05:53:32;;;;;;;3.42;2.50;;;18.80;99.90;;;;;;5073546;28;20036;-49
2023/06/05 05:55:59;;;;;;;3.40;2.60;;;18.90;99.90;;;;;;5073029;28;20032;-49
2023/06/05 05:58:25;;;;;;;3.17;2.58;;;18.90;99.90;;;;;;5066421;28;20472;-48
2023/06/05 06:00:52;;;;;;;5.07;2.67;;;18.80;99.90;;;;;;5053092;28;20032;-49
2023/06/05 06:03:19;;;;;;;3.92;2.80;;;18.50;99.90;;;;;;5052839;28;20577;-48
2023/06/05 06:05:45;;;;;;;3.90;2.90;;;18.70;99.90;;;;;;5052795;28;20049;-49
2023/06/05 06:08:11;;;;;;;3.47;2.55;;;18.60;99.90;;;;;;5052920;28;20078;-48
2023/06/05 06:10:37;;;;;;;3.85;2.83;;;18.70;99.90;;;;;;5065739;28;20127;-48
2023/06/05 06:13:04;;;;;;;4.18;2.95;;;;;;;;;;5073080;28;20035;-49
2023/06/05 06:15:31;;;;;;;4.00;2.72;;;19.00;99.90;;;;;;5073152;28;20024;-49
2023/06/05 06:17:57;;;;;;;3.40;2.78;;;19.30;99.90;;;;;;5072868;28;20124;-49
2023/06/05 06:20:23;;;;;;;4.22;2.65;;;19.40;99.90;;;;;;5072898;28;20115;-48
2023/06/05 06:22:49;;;;;;;4.63;3.00;;;;;;;;;;5072871;28;20032;-48
2023/06/05 06:25:17;;;;;;;3.10;2.33;;;19.70;99.90;;;;;;5073053;28;20047;-49
2023/06/05 06:27:48;;;;;;;4.00;2.70;;;19.70;99.90;;;;;;5054622;28;20064;-49
2023/06/05 06:30:14;;;;;;;2.90;2.60;;;19.60;99.90;;;;;;5072775;28;20043;-49
2023/06/05 06:32:40;;;;;;;5.03;3.03;;;19.30;99.90;;;;;;5072851;28;20035;-49
2023/06/05 06:35:07;;;;;;;3.13;2.50;;;19.60;99.90;;;;;;5073064;28;20029;-50
2023/06/05 06:37:33;;;;;;;4.68;2.83;;;19.80;99.90;;;;;;5054289;28;20094;-49
2023/06/05 06:39:59;;;;;;;4.05;2.88;;;19.80;99.90;;;;;;5054415;28;20036;-49
2023/06/05 06:42:26;;;;;;;3.17;2.67;;;20.10;99.90;;;;;;5071114;28;20480;-49
2023/06/05 06:44:55;;;;;;;3.90;2.95;;;20.30;99.90;;;;;;5072968;28;20073;-49
2023/06/05 06:47:22;;;;;;;4.43;2.40;;;20.50;99.90;;;;;;5072772;28;20037;-49
2023/06/05 06:49:48;;;;;;;3.60;2.45;;;;;;;;;;5072679;28;20028;-49
2023/06/05 06:52:15;;;;;;;2.88;2.10;;;20.90;99.90;;;;;;5072935;28;20024;-49
2023/06/05 06:54:41;;;;;;;3.50;2.47;;;;;;;;;;5070248;28;20036;-49
2023/06/05 06:57:08;;;;;;;4.32;2.50;;;;;;;;;;5071006;28;20048;-49
2023/06/05 06:59:34;;;;;;;4.20;2.28;;;;;;;;;;5072489;28;20032;-50
2023/06/05 07:02:19;;;;;;;2.90;2.30;;;;;;;;;;5072790;28;20028;-49
2023/06/05 07:04:47;;;;;;;3.08;2.47;;;;;;;;;;5072356;28;20072;-50
2023/06/05 07:07:16;;;;;;;3.30;2.50;;;;;;;;;;5069970;28;20041;-51
2023/06/05 07:09:43;;;;;;;2.67;2.40;;;;;;;;;;5069752;28;20044;-50
2023/06/05 07:12:10;;;;;;;3.17;2.15;;;;;;;;;;5075563;28;20056;-49
2023/06/05 07:14:36;;;;;;;2.65;2.10;;;;;;;;;;5072810;28;20028;-49
2023/06/05 07:17:02;;;;;;;3.95;2.58;;;;;;;;;;5081411;28;20029;-49
2023/06/05 07:19:28;;;;;;;3.65;2.53;;;;;;;;;;5060913;28;20033;-49
2023/06/05 07:21:58;;;;;;;3.17;2.53;;;;;;;;;;5081415;28;20035;-49
2023/06/05 07:24:25;;;;;;;3.00;2.13;;;;;;;;;;5075056;28;20380;-49
2023/06/05 07:26:55;;;;;;;2.78;2.30;;;;;;;;;;5078778;28;20472;-50
2023/06/05 07:29:23;;;;;;;2.45;1.90;;;;;;;;;;5073511;28;20040;-50
2023/06/05 07:31:49;;;;;;;3.00;2.30;;;;;;;;;;5075926;28;20075;-49
2023/06/05 07:34:15;;;;;;;2.75;2.00;;;;;;;;;;5077836;28;20052;-48
2023/06/05 07:36:42;;;;;;;4.10;2.40;;;;;;;;;;5080118;28;20093;-48
2023/06/05 07:39:09;;;;;;;5.20;2.45;;;;;;;;;;5073546;28;20034;-49
2023/06/05 07:41:35;;;;;;;3.30;2.33;;;22.20;99.90;;;;;;5079718;28;20484;-50
2023/06/05 07:44:01;;;;;;;2.80;2.42;;;22.20;99.90;;;;;;5043446;28;20123;-51
2023/06/05 07:46:26;;;;;;;2.72;2.05;;;22.00;99.90;;;;;;5077999;28;20032;-51
2023/06/05 07:48:52;;;;;;;3.42;2.38;;;22.10;99.90;;;;;;5047550;28;20036;-50
2023/06/05 07:51:18;;;;;;;3.13;2.08;;;22.20;99.90;;;;;;5057162;28;20076;-48
2023/06/05 07:53:44;;;;;;;4.97;2.20;;;22.60;99.90;;;;;;5074797;28;20174;-49
2023/06/05 07:56:11;;;;;;;2.65;1.88;;;22.40;99.90;;;;;;5080699;28;20043;-49
2023/06/05 07:58:39;;;;;;;3.45;2.13;;;;;;;;;;5074019;28;20487;-53
2023/06/05 08:01:06;;;;;;;5.03;2.40;;;23.10;99.90;;;;;;5075744;28;20067;-51
2023/06/05 08:03:33;;;;;;;2.63;2.20;;;;;;;;;;5080758;28;20035;-53
2023/06/05 08:05:59;;;;;;;3.38;2.42;;;;;;;;;;5065754;28;20109;-49
2023/06/05 08:08:25;;;;;;;2.70;2.15;;;;;;;;;;5080455;28;20028;-49
2023/06/05 08:10:51;;;;;;;3.05;2.38;;;;;;;;;;5016954;28;20126;-48
2023/06/05 08:13:17;;;;;;;3.00;2.42;;;;;;;;;;5075529;28;20036;-48
2023/06/05 08:15:43;;;;;;;2.17;1.95;;;;;;;;;;5075574;28;20047;-49
2023/06/05 08:18:10;;;;;;;3.35;2.03;;;;;;;;;;5072006;28;20028;-50
2023/06/05 08:20:35;;;;;;;5.22;2.60;;;24.00;99.90;;;;;;5076463;28;20039;-48
2023/06/05 08:23:01;;;;;;;3.25;2.35;;;23.90;99.90;;;;;;5024868;28;20044;-49
2023/06/05 08:25:27;;;;;;;2.95;2.15;;;;;;;;;;5037029;28;20372;-49
2023/06/05 08:27:54;;;;;;;2.42;2.22;;;;;;;;;;5053977;28;20117;-49
2023/06/05 08:30:20;;;;;;;2.45;2.20;;;;;;;;;;5068995;28;20064;-49
2023/06/05 08:32:47;;;;;;;3.35;2.10;;;;;;;;;;5049600;28;20560;-50
2023/06/05 08:35:12;;;;;;;2.80;1.80;;;25.30;99.90;;;;;;5073335;28;20488;-52
2023/06/05 08:37:39;;;;;;;3.00;2.17;;;25.50;99.90;;;;;;5068526;28;20040;-51
2023/06/05 08:40:07;;;;;;;2.83;1.65;;;25.20;99.90;;;;;;5074739;28;20028;-48
2023/06/05 08:42:33;;;;;;;3.40;2.20;;;25.10;99.90;;;;;;5072970;28;20033;-51
2023/06/05 08:44:59;;;;;;;3.90;2.25;;;24.90;99.90;;;;;;5077171;28;20033;-50
2023/06/05 08:47:28;;;;;;;2.67;2.13;;;;;;;;;;5058650;28;20492;-49
2023/06/05 08:49:55;;;;;;;2.00;1.80;;;25.50;99.90;;;;;;5073415;28;20020;-51
2023/06/05 08:52:23;;;;;;;2.90;2.13;;;;;;;;;;5072377;28;20028;-49
2023/06/05 08:54:50;;;;;;;5.05;1.90;;;;;;;;;;5069941;28;20027;-52
2023/06/05 08:57:16;;;;;;;4.10;2.03;;;25.40;99.90;;;;;;5070870;28;20037;-49
2023/06/05 08:59:42;;;;;;;2.65;1.95;;;;;;;;;;5072395;28;20082;-50
2023/06/05 09:02:09;;;;;;;4.28;2.30;;;;;;;;;;5069304;28;20037;-51
2023/06/05 09:04:36;;;;;;;2.25;2.03;;;;;;;;;;5076441;28;20123;-50
2023/06/05 09:07:03;;;;;;;2.88;2.08;;;;;;;;;;5070928;28;20067;-49
2023/06/05 09:09:29;;;;;;;2.75;2.30;;;;;;;;;;5076793;28;20559;-50
2023/06/05 09:12:05;;;;;;;2.50;1.95;;;;;;;;;;5063175;28;20075;-50
2023/06/05 09:14:32;;;;;;;4.85;1.90;;;;;;;;;;5012935;28;20048;-50
2023/06/05 09:17:00;;;;;;;3.08;2.13;;;;;;;;;;5076203;28;20153;-49
2023/06/05 09:19:35;;;;;;;2.70;2.03;;;;;;;;;;5072114;28;20069;-47
2023/06/05 09:22:02;;;;;;;3.78;2.00;;;;;;;;;;5032321;28;20392;-49
2023/06/05 09:24:30;;;;;;;2.83;2.25;;;;;;;;;;5064680;28;21099;-49
2023/06/05 09:27:01;;;;;;;3.67;2.25;;;;;;;;;;5072114;28;20096;-48
2023/06/05 09:29:27;;;;;;;2.30;1.90;;;;;;;;;;5064769;28;20040;-48
2023/06/05 09:31:55;;;;;;;2.40;1.90;;;26.80;99.90;;;;;;5053635;28;20281;-49
2023/06/05 09:34:23;;;;;;;2.30;1.70;;;27.10;99.90;;;;;;5071339;28;20046;-49
2023/06/05 09:36:49;;;;;;;3.03;2.15;;;;;;;;;;5068715;28;20036;-50
2023/06/05 09:39:15;;;;;;;3.53;2.17;;;;;;;;;;5075053;28;20095;-50
2023/06/05 09:41:45;;;;;;;2.60;1.95;;;27.80;99.90;;;;;;5070144;28;20032;-47
2023/06/05 09:44:11;;;;;;;2.45;2.20;;;27.60;99.90;;;;;;5049580;28;20401;-49
2023/06/05 09:46:53;;;;;;;4.05;2.22;;;;;;;;;;5068568;28;20035;-48
2023/06/05 09:49:20;;;;;;;2.25;2.05;;;27.70;99.90;;;;;;5062683;28;20044;-49
2023/06/05 09:51:47;;;;;;;2.25;1.90;;;27.80;99.90;;;;;;5025080;28;20033;-49
2023/06/05 09:54:13;;;;;;;2.38;2.15;;;28.20;99.90;;;;;;5025285;28;20052;-50
2023/06/05 09:56:48;;;;;;;3.10;1.80;;;27.90;99.90;;;;;;5016543;28;20046;-50
2023/06/05 09:59:24;;;;;;;3.28;1.92;;;28.10;99.90;;;;;;5022173;28;20037;-49
2023/06/05 10:01:53;;;;;;;2.40;1.83;;;28.40;99.90;;;;;;5016586;28;20461;-50
2023/06/05 10:04:32;;;;;;;4.38;2.03;;;28.60;99.90;;;;;;5018830;28;20042;-51
2023/06/05 10:07:04;;;;;;;2.15;1.80;;;27.70;99.90;;;;;;5020116;28;20472;-50
2023/06/05 10:09:34;;;;;;;4.93;2.25;;;27.70;99.90;;;;;;4979003;28;20060;-50
2023/06/05 10:12:00;;;;;;;2.33;2.13;;;27.80;99.90;;;;;;5018483;28;20477;-50
2023/06/05 10:14:26;;;;;;;1.85;1.70;;;28.10;99.90;;;;;;5021833;28;20120;-50
2023/06/05 10:16:52;;;;;;;4.25;2.22;;;27.80;99.90;;;;;;5017048;28;20086;-50
2023/06/05 10:19:20;;;;;;;2.95;2.20;;;27.80;99.90;;;;;;5023822;28;20432;-50
2023/06/05 10:21:49;;;;;;;3.83;2.17;;;27.30;99.90;;;;;;5025348;28;20036;-48
2023/06/05 10:24:37;;;;;;;4.70;2.08;;;27.40;99.90;;;;;;5041307;28;20047;-50
2023/06/05 10:27:12;;;;;;;2.30;1.95;;;27.60;99.90;;;;;;5063475;28;20026;-48
2023/06/05 10:29:56;;;;;;;3.45;2.10;;;27.80;99.90;;;;;;5067814;28;20119;-48
2023/06/05 10:32:31;;;;;;;3.60;2.28;;;27.70;99.90;;;;;;5066057;28;20448;-49
2023/06/05 10:35:18;;;;;;;2.42;1.95;;;27.40;99.90;;;;;;5041797;28;20047;-48
2023/06/05 10:38:06;;;;;;;2.13;1.80;;;27.50;99.90;;;;;;5075650;28;20104;-50
2023/06/05 10:40:33;;;;;;;4.15;2.10;;;27.70;99.90;;;;;;5065458;28;20048;-48
2023/06/05 10:43:46;;;;;;;5.25;2.28;;;27.20;99.90;;;;;;5075085;28;20476;-48
2023/06/05 10:46:26;;;;;;;;;;;26.60;99.90;;;;;;5068360;28;20040;-48
2023/06/05 10:49:05;;;;;;;3.80;2.55;;;27.00;99.90;;;;;;5074165;28;19912;-49
2023/06/05 10:51:39;;;;;;;3.60;2.13;;;26.70;99.90;;;;;;5076436;28;20086;-48
2023/06/05 10:54:06;;;;;;;3.05;2.20;;;27.00;99.90;;;;;;5073103;28;20032;-48
2023/06/05 10:56:51;;;;;;;2.33;2.00;;;27.30;99.90;;;;;;5077337;28;20047;-49
2023/06/05 10:59:20;;;;;;;2.20;2.00;;;27.30;99.90;;;;;;5055372;28;20037;-50
2023/06/05 11:04:46;;;;;;;2.47;1.95;;;27.40;99.90;;;;;;5073972;28;20365;-48
2023/06/05 11:07:30;;;;;;;2.38;1.90;;;27.10;99.90;;;;;;5067855;28;20165;-49
2023/06/05 11:10:05;;;;;;;2.75;2.30;;;27.00;99.90;;;;;;5070192;28;20427;-52
2023/06/05 11:12:42;;;;;;;3.13;2.35;;;27.20;99.90;;;;;;5070705;28;20388;-47
2023/06/05 11:15:11;;;;;;;4.22;2.38;;;27.10;99.90;;;;;;5072498;28;20448;-48
2023/06/05 11:17:39;;;;;;;3.28;2.15;;;26.80;99.90;;;;;;5081568;28;20098;-50
2023/06/05 11:20:27;;;;;;;3.40;2.20;;;26.90;99.90;;;;;;5078242;28;20025;-50
2023/06/05 11:22:53;;;;;;;2.90;1.70;;;27.20;99.90;;;;;;4973581;28;20129;-49
2023/06/05 11:25:21;;;;;;;2.88;1.60;;;27.10;99.90;;;;;;4974048;28;20149;-51
2023/06/05 11:27:49;;;;;;;3.15;1.95;;;27.00;99.90;;;;;;4988770;28;20108;-48
2023/06/05 11:30:24;;;;;;;2.00;1.70;;;27.40;99.90;;;;;;4996960;28;20061;-48
2023/06/05 11:32:54;;;;;;;2.70;2.10;;;27.50;99.90;;;;;;4992732;28;20060;-50
2023/06/05 11:35:25;;;;;;;4.43;2.28;;;27.40;99.90;;;;;;4994446;28;20042;-48
2023/06/05 11:38:12;;;;;;;3.20;2.15;;;27.30;99.90;;;;;;4992479;28;20052;-45
2023/06/05 11:40:39;;;;;;;3.80;2.30;;;27.50;99.90;;;;;;4990512;28;20458;-49
2023/06/05 11:43:07;;;;;;;4.40;2.20;;;27.50;99.90;;;;;;4996304;28;20218;-46
2023/06/05 11:45:37;;;;;;;2.67;1.95;;;27.80;99.90;;;;;;4987237;28;20038;-48
2023/06/05 11:48:11;;;;;;;2.67;2.08;;;28.10;99.90;;;;;;4991191;28;20034;-53
2023/06/05 11:50:51;;;;;;;2.40;1.98;;;28.20;99.90;;;;;;4975917;28;20043;-50
2023/06/05 11:53:17;;;;;;;2.05;1.80;;;28.00;99.90;;;;;;4995418;28;20494;-49
2023/06/05 11:55:53;;;;;;;3.35;2.10;;;28.30;99.90;;;;;;4996464;28;20033;-51
2023/06/05 11:58:23;;;;;;;4.05;2.10;;;28.10;99.90;;;;;;4990481;28;20195;-50
2023/06/05 12:00:49;;;;;;;3.80;2.42;;;28.50;99.90;;;;;;5064596;28;20396;-50
2023/06/05 12:03:20;;;;;;;3.92;2.65;;;28.40;99.90;;;;;;5073323;28;20031;-49
2023/06/05 12:05:47;;;;;;;5.78;2.60;;;28.20;99.90;;;;;;5075625;28;20060;-50
2023/06/05 12:08:28;;;;;;;4.72;2.70;;;28.30;99.90;;;;;;5073395;28;20037;-49
2023/06/05 12:10:56;;;;;;;5.00;2.90;;;27.90;99.90;;;;;;5071251;28;20036;-48
2023/06/05 12:13:22;;;;;;;3.88;2.53;;;28.10;99.90;;;;;;5070364;28;20036;-48
2023/06/05 12:16:00;;;;;;;3.60;2.55;;;27.70;99.90;;;;;;5077131;28;20024;-49
2023/06/05 12:18:33;;;;;;;3.92;2.50;;;27.90;99.90;;;;;;5045027;28;20044;-48
2023/06/05 12:20:59;;;;;;;6.05;3.00;;;28.00;99.90;;;;;;5067655;28;20029;-47
2023/06/05 12:23:25;;;;;;;7.20;2.85;;;28.10;99.90;;;;;;5067177;28;20032;-48
2023/06/05 12:26:04;;;;;;;3.38;2.42;;;28.40;99.90;;;;;;5067894;28;20047;-49
2023/06/05 12:28:31;;;;;;;4.25;2.67;;;28.30;99.90;;;;;;5071650;28;20040;-49
2023/06/05 12:30:57;;;;;;;2.60;1.92;;;28.40;99.90;;;;;;5068302;28;20085;-51
2023/06/05 12:33:24;;;;;;;3.63;2.70;;;28.40;99.90;;;;;;5074708;28;20086;-50
2023/06/05 12:36:10;;;;;;;5.18;2.30;;;28.70;99.90;;;;;;5074250;28;20040;-48
2023/06/05 12:38:41;;;;;;;5.03;2.53;;;28.90;99.90;;;;;;5071526;28;20063;-48
2023/06/05 12:41:08;;;;;;;2.97;2.03;;;28.70;99.90;;;;;;5069911;28;20032;-47
2023/06/05 12:43:36;;;;;;;2.50;2.15;;;28.70;99.90;;;;;;5033811;28;20025;-47
2023/06/05 12:46:03;;;;;;;3.08;2.00;;;28.70;99.90;;;;;;5039397;28;20043;-48
2023/06/05 12:48:29;;;;;;;3.33;2.53;;;29.00;99.90;;;;;;5071762;28;20032;-48
2023/06/05 12:50:56;;;;;;;2.80;2.20;;;28.70;99.90;;;;;;5071983;28;20472;-49
2023/06/05 12:53:22;;;;;;;4.68;2.97;;;;;;;;;;5074481;28;20090;-47
2023/06/05 12:55:48;;;;;;;4.32;3.15;;;;;;;;;;5074166;28;20043;-49
2023/06/05 12:58:14;;;;;;;3.50;2.90;;;;;;;;;;5052467;28;20124;-48
2023/06/05 13:00:41;;;;;;;4.95;2.80;;;29.10;99.90;;;;;;5075478;28;20032;-48
2023/06/05 13:03:09;;;;;;;4.32;2.80;;;;;;;;;;5072016;28;20045;-47
2023/06/05 13:05:35;;;;;;;3.78;2.70;;;;;;;;;;5086618;28;20051;-48
2023/06/05 13:08:02;;;;;;;3.15;2.60;;;;;;;;;;5071642;28;20047;-48
2023/06/05 13:10:29;;;;;;;4.13;2.35;;;;;;;;;;5076146;28;20043;-47
2023/06/05 13:12:55;;;;;;;2.67;1.90;;;;;;;;;;5071808;28;20037;-49
2023/06/05 13:15:21;;;;;;;2.72;2.17;;;;;;;;;;5066859;28;20033;-50
2023/06/05 13:17:49;;;;;;;2.85;2.50;;;;;;;;;;5072547;28;20132;-48
2023/06/05 13:20:15;;;;;;;3.17;2.50;;;;;;;;;;5056288;28;20047;-47